createdAt,value
2022-10-11T00:18:13.878Z,12.2
2022-10-11T00:38:13.842Z,11.66
2022-10-11T00:58:13.808Z,10.8
2022-10-11T01:18:13.803Z,10.41
2022-10-11T01:38:13.793Z,9.88
2022-10-11T02:18:27.664Z,7.8
2022-10-11T02:38:13.598Z,7.7
2022-10-11T02:58:20.557Z,8.13
2022-10-11T03:18:13.546Z,8.43
2022-10-11T03:38:20.509Z,8.15
2022-10-11T04:18:13.403Z,7.9
2022-10-11T04:38:13.386Z,7.92
2022-10-11T04:58:27.348Z,7.73
2022-10-11T05:18:13.293Z,7.57
2022-10-11T05:38:20.407Z,7.56
2022-10-11T05:58:20.231Z,7.76
2022-10-11T06:18:13.217Z,8.48
2022-10-11T06:58:13.119Z,9.03
2022-10-11T07:18:13.067Z,10.25
2022-10-11T07:38:27.055Z,12.4
2022-10-11T07:58:12.991Z,14.72
2022-10-11T08:18:12.952Z,16.21
2022-10-11T08:38:19.898Z,17.67
2022-10-11T08:58:19.859Z,18.48
2022-10-11T09:38:12.750Z,17.54
2022-10-11T09:58:12.719Z,19.09
2022-10-11T10:18:26.679Z,18.22
2022-10-11T10:38:12.640Z,17.57
2022-10-11T10:58:15.123Z,17.86
2022-10-11T11:18:12.506Z,16.67
2022-10-11T11:38:12.493Z,15.52
2022-10-11T12:18:12.376Z,15.82
2022-10-11T12:38:12.312Z,15.26
2022-10-11T12:58:12.295Z,15.89
2022-10-11T13:18:12.234Z,16.22
2022-10-11T13:38:19.191Z,16.61
2022-10-11T13:58:19.281Z,16.47
2022-10-11T14:18:12.084Z,16.48
2022-10-11T14:38:19.035Z,15.5
2022-10-11T14:58:12.012Z,15.15
2022-10-11T15:18:11.958Z,14.86
2022-10-11T15:58:11.887Z,13.25
2022-10-11T16:18:11.820Z,11.99
2022-10-11T16:38:11.778Z,10.8
2022-10-11T17:18:11.693Z,9.42
2022-10-11T17:38:11.717Z,8.53
2022-10-11T17:58:11.651Z,8.31
2022-10-11T18:38:11.541Z,7.47
2022-10-11T18:58:11.509Z,7.48
2022-10-11T19:18:11.482Z,6.4
2022-10-11T19:58:11.414Z,5.96
2022-10-11T20:18:11.359Z,5.82
2022-10-11T20:38:11.334Z,5.57
2022-10-11T21:38:11.246Z,4.66
2022-10-11T21:58:11.197Z,4.74
2022-10-11T22:58:11.126Z,3.94
2022-10-11T23:18:18.081Z,3.61
